sensor_id;sensor_type;location;lat;lon;timestamp;P1;durP1;ratioP1;P2;durP2;ratioP2
3995;SDS011;2012;49.794;9.722;2022-07-03T00:00:00;4.20;;;1.87;;
3995;SDS011;2012;49.794;9.722;2022-07-03T00:02:28;1.60;;;1.50;;
3995;SDS011;2012;49.794;9.722;2022-07-03T00:04:55;2.10;;;1.90;;
3995;SDS011;2012;49.794;9.722;2022-07-03T00:07:22;2.10;;;1.57;;
3995;SDS011;2012;49.794;9.722;2022-07-03T00:09:48;5.97;;;1.77;;
3995;SDS011;2012;49.794;9.722;2022-07-03T00:12:15;1.70;;;1.60;;
3995;SDS011;2012;49.794;9.722;2022-07-03T00:14:42;2.30;;;1.40;;
3995;SDS011;2012;49.794;9.722;2022-07-03T00:17:11;1.43;;;1.33;;
3995;SDS011;2012;49.794;9.722;2022-07-03T00:19:37;2.20;;;1.70;;
3995;SDS011;2012;49.794;9.722;2022-07-03T00:22:05;1.97;;;1.40;;
3995;SDS011;2012;49.794;9.722;2022-07-03T00:27:20;1.40;;;1.30;;
3995;SDS011;2012;49.794;9.722;2022-07-03T00:29:49;1.77;;;1.60;;
3995;SDS011;2012;49.794;9.722;2022-07-03T00:32:19;1.70;;;1.60;;
3995;SDS011;2012;49.794;9.722;2022-07-03T00:34:50;3.60;;;1.30;;
3995;SDS011;2012;49.794;9.722;2022-07-03T00:37:18;2.70;;;1.57;;
3995;SDS011;2012;49.794;9.722;2022-07-03T00:39:45;3.50;;;1.47;;
3995;SDS011;2012;49.794;9.722;2022-07-03T00:42:12;1.97;;;1.30;;
3995;SDS011;2012;49.794;9.722;2022-07-03T00:44:46;3.83;;;1.60;;
3995;SDS011;2012;49.794;9.722;2022-07-03T00:47:18;1.87;;;1.50;;
3995;SDS011;2012;49.794;9.722;2022-07-03T00:49:48;1.63;;;1.53;;
3995;SDS011;2012;49.794;9.722;2022-07-03T00:52:17;1.70;;;1.50;;
3995;SDS011;2012;49.794;9.722;2022-07-03T00:54:51;2.70;;;1.40;;
3995;SDS011;2012;49.794;9.722;2022-07-03T00:57:22;1.53;;;1.43;;
3995;SDS011;2012;49.794;9.722;2022-07-03T00:59:50;2.40;;;1.87;;
3995;SDS011;2012;49.794;9.722;2022-07-03T01:02:29;1.50;;;1.40;;
3995;SDS011;2012;49.794;9.722;2022-07-03T01:07:57;1.63;;;1.30;;
3995;SDS011;2012;49.794;9.722;2022-07-03T01:13:25;2.53;;;1.83;;
3995;SDS011;2012;49.794;9.722;2022-07-03T01:27:28;2.53;;;1.90;;
3995;SDS011;2012;49.794;9.722;2022-07-03T01:30:08;1.40;;;1.30;;
3995;SDS011;2012;49.794;9.722;2022-07-03T01:32:44;1.93;;;1.60;;
3995;SDS011;2012;49.794;9.722;2022-07-03T01:35:13;1.93;;;1.53;;
3995;SDS011;2012;49.794;9.722;2022-07-03T01:37:53;3.73;;;1.40;;
3995;SDS011;2012;49.794;9.722;2022-07-03T01:40:21;2.03;;;1.60;;
3995;SDS011;2012;49.794;9.722;2022-07-03T01:42:49;1.60;;;1.50;;
3995;SDS011;2012;49.794;9.722;2022-07-03T01:45:19;4.97;;;1.60;;
3995;SDS011;2012;49.794;9.722;2022-07-03T01:47:47;2.30;;;2.10;;
3995;SDS011;2012;49.794;9.722;2022-07-03T01:50:15;3.23;;;2.20;;
3995;SDS011;2012;49.794;9.722;2022-07-03T01:52:42;1.73;;;1.63;;
3995;SDS011;2012;49.794;9.722;2022-07-03T01:55:15;1.90;;;1.80;;
3995;SDS011;2012;49.794;9.722;2022-07-03T01:57:44;3.27;;;1.87;;
3995;SDS011;2012;49.794;9.722;2022-07-03T02:00:18;4.97;;;1.80;;
3995;SDS011;2012;49.794;9.722;2022-07-03T02:05:29;3.43;;;1.53;;
3995;SDS011;2012;49.794;9.722;2022-07-03T02:10:34;3.60;;;1.83;;
3995;SDS011;2012;49.794;9.722;2022-07-03T02:13:30;2.90;;;1.70;;
3995;SDS011;2012;49.794;9.722;2022-07-03T02:16:03;3.50;;;2.10;;
3995;SDS011;2012;49.794;9.722;2022-07-03T02:18:35;2.40;;;1.53;;
3995;SDS011;2012;49.794;9.722;2022-07-03T02:21:17;2.43;;;1.90;;
3995;SDS011;2012;49.794;9.722;2022-07-03T02:23:55;3.07;;;1.53;;
3995;SDS011;2012;49.794;9.722;2022-07-03T02:26:37;2.90;;;1.50;;
3995;SDS011;2012;49.794;9.722;2022-07-03T02:29:07;3.90;;;1.57;;
3995;SDS011;2012;49.794;9.722;2022-07-03T02:31:38;2.07;;;1.60;;
3995;SDS011;2012;49.794;9.722;2022-07-03T02:34:17;4.00;;;1.90;;
3995;SDS011;2012;49.794;9.722;2022-07-03T02:36:50;3.13;;;1.50;;
3995;SDS011;2012;49.794;9.722;2022-07-03T02:39:24;1.53;;;1.43;;
3995;SDS011;2012;49.794;9.722;2022-07-03T02:41:59;1.60;;;1.50;;
3995;SDS011;2012;49.794;9.722;2022-07-03T02:44:45;1.83;;;1.33;;
3995;SDS011;2012;49.794;9.722;2022-07-03T02:50:08;4.63;;;1.70;;
3995;SDS011;2012;49.794;9.722;2022-07-03T03:01:13;3.47;;;1.40;;
3995;SDS011;2012;49.794;9.722;2022-07-03T03:03:45;1.30;;;1.07;;
3995;SDS011;2012;49.794;9.722;2022-07-03T03:06:33;3.67;;;1.90;;
3995;SDS011;2012;49.794;9.722;2022-07-03T03:09:03;2.30;;;1.40;;
3995;SDS011;2012;49.794;9.722;2022-07-03T03:11:40;3.10;;;1.37;;
3995;SDS011;2012;49.794;9.722;2022-07-03T03:14:11;2.33;;;1.43;;
3995;SDS011;2012;49.794;9.722;2022-07-03T03:17:01;2.00;;;1.80;;
3995;SDS011;2012;49.794;9.722;2022-07-03T03:19:29;10.23;;;1.67;;
3995;SDS011;2012;49.794;9.722;2022-07-03T03:22:07;1.80;;;1.70;;
3995;SDS011;2012;49.794;9.722;2022-07-03T03:24:56;2.13;;;1.37;;
3995;SDS011;2012;49.794;9.722;2022-07-03T03:27:23;13.30;;;1.67;;
3995;SDS011;2012;49.794;9.722;2022-07-03T03:29:50;1.77;;;1.53;;
3995;SDS011;2012;49.794;9.722;2022-07-03T03:32:17;1.50;;;1.40;;
3995;SDS011;2012;49.794;9.722;2022-07-03T03:34:46;1.80;;;1.70;;
3995;SDS011;2012;49.794;9.722;2022-07-03T03:37:13;2.70;;;1.83;;
3995;SDS011;2012;49.794;9.722;2022-07-03T03:39:41;1.63;;;1.53;;
3995;SDS011;2012;49.794;9.722;2022-07-03T03:42:09;1.70;;;1.60;;
3995;SDS011;2012;49.794;9.722;2022-07-03T03:44:36;1.60;;;1.50;;
3995;SDS011;2012;49.794;9.722;2022-07-03T03:47:04;5.17;;;1.43;;
3995;SDS011;2012;49.794;9.722;2022-07-03T03:49:31;6.93;;;1.83;;
3995;SDS011;2012;49.794;9.722;2022-07-03T03:51:57;1.80;;;1.60;;
3995;SDS011;2012;49.794;9.722;2022-07-03T03:54:24;3.20;;;1.67;;
3995;SDS011;2012;49.794;9.722;2022-07-03T03:56:51;2.60;;;1.90;;
3995;SDS011;2012;49.794;9.722;2022-07-03T03:59:18;3.83;;;2.10;;
3995;SDS011;2012;49.794;9.722;2022-07-03T04:01:45;2.37;;;2.17;;
3995;SDS011;2012;49.794;9.722;2022-07-03T04:04:14;2.17;;;1.63;;
3995;SDS011;2012;49.794;9.722;2022-07-03T04:06:45;2.03;;;1.77;;
3995;SDS011;2012;49.794;9.722;2022-07-03T04:09:12;3.60;;;1.80;;
3995;SDS011;2012;49.794;9.722;2022-07-03T04:11:38;2.57;;;1.50;;
3995;SDS011;2012;49.794;9.722;2022-07-03T04:14:05;2.57;;;1.73;;
3995;SDS011;2012;49.794;9.722;2022-07-03T04:16:33;2.80;;;1.73;;
3995;SDS011;2012;49.794;9.722;2022-07-03T04:19:00;3.43;;;1.80;;
3995;SDS011;2012;49.794;9.722;2022-07-03T04:21:27;1.77;;;1.67;;
3995;SDS011;2012;49.794;9.722;2022-07-03T04:23:54;7.53;;;2.00;;
3995;SDS011;2012;49.794;9.722;2022-07-03T04:26:20;1.80;;;1.70;;
3995;SDS011;2012;49.794;9.722;2022-07-03T04:28:47;3.27;;;1.53;;
3995;SDS011;2012;49.794;9.722;2022-07-03T04:31:14;3.37;;;1.50;;
3995;SDS011;2012;49.794;9.722;2022-07-03T04:33:41;1.87;;;1.77;;
3995;SDS011;2012;49.794;9.722;2022-07-03T04:36:12;1.67;;;1.57;;
3995;SDS011;2012;49.794;9.722;2022-07-03T04:38:39;2.40;;;2.20;;
3995;SDS011;2012;49.794;9.722;2022-07-03T04:41:06;2.13;;;1.87;;
3995;SDS011;2012;49.794;9.722;2022-07-03T04:43:33;4.60;;;1.70;;
3995;SDS011;2012;49.794;9.722;2022-07-03T04:46:00;2.03;;;1.83;;
3995;SDS011;2012;49.794;9.722;2022-07-03T04:48:27;6.50;;;1.87;;
3995;SDS011;2012;49.794;9.722;2022-07-03T04:50:55;2.67;;;1.60;;
3995;SDS011;2012;49.794;9.722;2022-07-03T04:53:22;1.80;;;1.30;;
3995;SDS011;2012;49.794;9.722;2022-07-03T04:55:49;2.50;;;1.73;;
3995;SDS011;2012;49.794;9.722;2022-07-03T04:58:15;2.40;;;1.70;;
3995;SDS011;2012;49.794;9.722;2022-07-03T05:00:43;3.23;;;1.90;;
3995;SDS011;2012;49.794;9.722;2022-07-03T05:03:11;4.30;;;2.37;;
3995;SDS011;2012;49.794;9.722;2022-07-03T05:05:38;2.13;;;2.00;;
3995;SDS011;2012;49.794;9.722;2022-07-03T05:08:05;2.93;;;1.70;;
3995;SDS011;2012;49.794;9.722;2022-07-03T05:10:32;2.10;;;2.00;;
3995;SDS011;2012;49.794;9.722;2022-07-03T05:12:59;1.90;;;1.67;;
3995;SDS011;2012;49.794;9.722;2022-07-03T05:15:26;6.03;;;2.20;;
3995;SDS011;2012;49.794;9.722;2022-07-03T05:17:52;2.00;;;1.90;;
3995;SDS011;2012;49.794;9.722;2022-07-03T05:20:19;3.63;;;2.43;;
3995;SDS011;2012;49.794;9.722;2022-07-03T05:22:58;2.83;;;2.13;;
3995;SDS011;2012;49.794;9.722;2022-07-03T05:25:26;2.03;;;1.93;;
3995;SDS011;2012;49.794;9.722;2022-07-03T05:27:54;2.97;;;1.60;;
3995;SDS011;2012;49.794;9.722;2022-07-03T05:30:22;6.80;;;2.27;;
3995;SDS011;2012;49.794;9.722;2022-07-03T05:32:50;1.83;;;1.73;;
3995;SDS011;2012;49.794;9.722;2022-07-03T05:35:17;1.87;;;1.73;;
3995;SDS011;2012;49.794;9.722;2022-07-03T05:37:44;2.60;;;1.57;;
3995;SDS011;2012;49.794;9.722;2022-07-03T05:40:10;3.00;;;1.63;;
3995;SDS011;2012;49.794;9.722;2022-07-03T05:42:37;5.90;;;2.30;;
3995;SDS011;2012;49.794;9.722;2022-07-03T05:45:04;2.70;;;1.83;;
3995;SDS011;2012;49.794;9.722;2022-07-03T05:47:32;3.33;;;2.00;;
3995;SDS011;2012;49.794;9.722;2022-07-03T05:49:59;2.80;;;1.73;;
3995;SDS011;2012;49.794;9.722;2022-07-03T05:52:25;2.00;;;1.63;;
3995;SDS011;2012;49.794;9.722;2022-07-03T05:54:52;2.40;;;1.77;;
3995;SDS011;2012;49.794;9.722;2022-07-03T05:57:19;1.90;;;1.73;;
3995;SDS011;2012;49.794;9.722;2022-07-03T05:59:46;3.20;;;1.50;;
3995;SDS011;2012;49.794;9.722;2022-07-03T06:02:13;4.90;;;2.00;;
3995;SDS011;2012;49.794;9.722;2022-07-03T06:04:40;5.07;;;1.77;;
3995;SDS011;2012;49.794;9.722;2022-07-03T06:07:07;5.43;;;1.70;;
3995;SDS011;2012;49.794;9.722;2022-07-03T06:09:34;1.70;;;1.60;;
3995;SDS011;2012;49.794;9.722;2022-07-03T06:12:00;2.20;;;2.00;;
3995;SDS011;2012;49.794;9.722;2022-07-03T06:14:27;2.20;;;2.00;;
3995;SDS011;2012;49.794;9.722;2022-07-03T06:16:54;3.53;;;1.70;;
3995;SDS011;2012;49.794;9.722;2022-07-03T06:19:21;2.33;;;1.90;;
3995;SDS011;2012;49.794;9.722;2022-07-03T06:21:48;2.00;;;1.80;;
3995;SDS011;2012;49.794;9.722;2022-07-03T06:24:14;1.57;;;1.40;;
3995;SDS011;2012;49.794;9.722;2022-07-03T06:26:41;2.40;;;1.80;;
3995;SDS011;2012;49.794;9.722;2022-07-03T06:29:08;3.33;;;1.60;;
3995;SDS011;2012;49.794;9.722;2022-07-03T06:31:34;1.77;;;1.40;;
3995;SDS011;2012;49.794;9.722;2022-07-03T06:34:01;2.27;;;1.63;;
3995;SDS011;2012;49.794;9.722;2022-07-03T06:36:28;4.70;;;1.50;;
3995;SDS011;2012;49.794;9.722;2022-07-03T06:38:55;4.63;;;1.67;;
3995;SDS011;2012;49.794;9.722;2022-07-03T06:41:21;3.33;;;1.77;;
3995;SDS011;2012;49.794;9.722;2022-07-03T06:43:49;2.60;;;1.30;;
3995;SDS011;2012;49.794;9.722;2022-07-03T06:46:16;2.50;;;1.70;;
3995;SDS011;2012;49.794;9.722;2022-07-03T06:48:42;3.00;;;1.90;;
3995;SDS011;2012;49.794;9.722;2022-07-03T06:51:09;1.90;;;1.47;;
3995;SDS011;2012;49.794;9.722;2022-07-03T06:53:42;2.20;;;1.60;;
3995;SDS011;2012;49.794;9.722;2022-07-03T06:56:08;1.73;;;1.20;;
3995;SDS011;2012;49.794;9.722;2022-07-03T06:58:35;1.30;;;1.20;;
3995;SDS011;2012;49.794;9.722;2022-07-03T07:01:02;4.10;;;1.40;;
3995;SDS011;2012;49.794;9.722;2022-07-03T07:03:29;3.53;;;1.60;;
3995;SDS011;2012;49.794;9.722;2022-07-03T07:05:55;2.73;;;1.27;;
3995;SDS011;2012;49.794;9.722;2022-07-03T07:08:22;1.27;;;1.17;;
3995;SDS011;2012;49.794;9.722;2022-07-03T07:10:49;1.73;;;1.53;;
3995;SDS011;2012;49.794;9.722;2022-07-03T07:13:15;2.17;;;1.37;;
3995;SDS011;2012;49.794;9.722;2022-07-03T07:15:42;3.50;;;1.40;;
3995;SDS011;2012;49.794;9.722;2022-07-03T07:18:09;1.80;;;1.30;;
3995;SDS011;2012;49.794;9.722;2022-07-03T07:20:36;1.60;;;1.20;;
3995;SDS011;2012;49.794;9.722;2022-07-03T07:23:02;3.77;;;1.37;;
3995;SDS011;2012;49.794;9.722;2022-07-03T07:25:29;2.63;;;1.50;;
3995;SDS011;2012;49.794;9.722;2022-07-03T07:27:56;3.47;;;1.40;;
3995;SDS011;2012;49.794;9.722;2022-07-03T07:30:23;7.10;;;1.40;;
3995;SDS011;2012;49.794;9.722;2022-07-03T07:32:49;1.83;;;1.40;;
3995;SDS011;2012;49.794;9.722;2022-07-03T07:35:20;3.73;;;1.20;;
3995;SDS011;2012;49.794;9.722;2022-07-03T07:37:47;2.53;;;1.20;;
3995;SDS011;2012;49.794;9.722;2022-07-03T07:40:14;2.57;;;1.20;;
3995;SDS011;2012;49.794;9.722;2022-07-03T07:42:41;4.60;;;1.47;;
3995;SDS011;2012;49.794;9.722;2022-07-03T07:45:09;5.27;;;1.20;;
3995;SDS011;2012;49.794;9.722;2022-07-03T07:47:37;1.40;;;1.30;;
3995;SDS011;2012;49.794;9.722;2022-07-03T07:50:04;2.13;;;1.10;;
3995;SDS011;2012;49.794;9.722;2022-07-03T07:52:32;3.40;;;1.53;;
3995;SDS011;2012;49.794;9.722;2022-07-03T07:54:58;8.83;;;1.50;;
3995;SDS011;2012;49.794;9.722;2022-07-03T07:57:25;2.10;;;1.37;;
3995;SDS011;2012;49.794;9.722;2022-07-03T08:00:03;7.03;;;1.00;;
3995;SDS011;2012;49.794;9.722;2022-07-03T08:02:37;5.07;;;1.17;;
3995;SDS011;2012;49.794;9.722;2022-07-03T08:05:23;1.00;;;0.90;;
3995;SDS011;2012;49.794;9.722;2022-07-03T08:08:06;1.40;;;1.30;;
3995;SDS011;2012;49.794;9.722;2022-07-03T08:10:37;2.83;;;1.00;;
3995;SDS011;2012;49.794;9.722;2022-07-03T08:13:06;1.60;;;1.03;;
3995;SDS011;2012;49.794;9.722;2022-07-03T08:15:34;1.73;;;0.90;;
3995;SDS011;2012;49.794;9.722;2022-07-03T08:18:01;1.87;;;0.80;;
3995;SDS011;2012;49.794;9.722;2022-07-03T08:20:28;2.63;;;1.03;;
3995;SDS011;2012;49.794;9.722;2022-07-03T08:22:55;1.40;;;1.17;;
3995;SDS011;2012;49.794;9.722;2022-07-03T08:25:23;1.10;;;1.00;;
3995;SDS011;2012;49.794;9.722;2022-07-03T08:27:50;5.60;;;1.20;;
3995;SDS011;2012;49.794;9.722;2022-07-03T08:30:17;1.30;;;0.90;;
3995;SDS011;2012;49.794;9.722;2022-07-03T08:32:45;1.17;;;1.07;;
3995;SDS011;2012;49.794;9.722;2022-07-03T08:35:13;1.53;;;0.90;;
3995;SDS011;2012;49.794;9.722;2022-07-03T08:37:40;1.33;;;0.80;;
3995;SDS011;2012;49.794;9.722;2022-07-03T08:40:07;0.80;;;0.70;;
3995;SDS011;2012;49.794;9.722;2022-07-03T08:42:35;1.67;;;1.13;;
3995;SDS011;2012;49.794;9.722;2022-07-03T08:45:06;1.10;;;1.00;;
3995;SDS011;2012;49.794;9.722;2022-07-03T08:47:34;1.83;;;1.00;;
3995;SDS011;2012;49.794;9.722;2022-07-03T08:50:03;2.87;;;1.10;;
3995;SDS011;2012;49.794;9.722;2022-07-03T08:52:30;1.20;;;0.80;;
3995;SDS011;2012;49.794;9.722;2022-07-03T08:54:57;1.20;;;1.10;;
3995;SDS011;2012;49.794;9.722;2022-07-03T08:57:24;0.90;;;0.80;;
3995;SDS011;2012;49.794;9.722;2022-07-03T08:59:53;1.20;;;0.70;;
3995;SDS011;2012;49.794;9.722;2022-07-03T09:02:21;1.00;;;0.83;;
3995;SDS011;2012;49.794;9.722;2022-07-03T09:04:49;2.97;;;1.07;;
3995;SDS011;2012;49.794;9.722;2022-07-03T09:07:17;0.90;;;0.70;;
3995;SDS011;2012;49.794;9.722;2022-07-03T09:09:44;1.30;;;0.90;;
3995;SDS011;2012;49.794;9.722;2022-07-03T09:12:12;3.97;;;1.40;;
3995;SDS011;2012;49.794;9.722;2022-07-03T09:14:40;1.03;;;0.90;;
3995;SDS011;2012;49.794;9.722;2022-07-03T09:17:07;1.50;;;1.00;;
3995;SDS011;2012;49.794;9.722;2022-07-03T09:19:41;1.37;;;0.80;;
3995;SDS011;2012;49.794;9.722;2022-07-03T09:22:25;0.90;;;0.90;;
3995;SDS011;2012;49.794;9.722;2022-07-03T09:25:07;4.30;;;1.00;;
3995;SDS011;2012;49.794;9.722;2022-07-03T09:27:39;1.00;;;0.70;;
3995;SDS011;2012;49.794;9.722;2022-07-03T09:30:16;6.93;;;1.00;;
3995;SDS011;2012;49.794;9.722;2022-07-03T09:32:44;1.00;;;0.80;;
3995;SDS011;2012;49.794;9.722;2022-07-03T09:35:13;1.00;;;0.80;;
3995;SDS011;2012;49.794;9.722;2022-07-03T09:37:41;1.03;;;0.70;;
3995;SDS011;2012;49.794;9.722;2022-07-03T09:40:13;0.90;;;0.70;;
3995;SDS011;2012;49.794;9.722;2022-07-03T09:42:40;3.10;;;0.80;;
3995;SDS011;2012;49.794;9.722;2022-07-03T09:45:07;2.60;;;0.80;;
3995;SDS011;2012;49.794;9.722;2022-07-03T09:47:34;2.80;;;0.90;;
3995;SDS011;2012;49.794;9.722;2022-07-03T09:50:07;2.70;;;1.10;;
3995;SDS011;2012;49.794;9.722;2022-07-03T09:52:39;1.00;;;0.90;;
3995;SDS011;2012;49.794;9.722;2022-07-03T09:57:37;1.33;;;0.90;;
3995;SDS011;2012;49.794;9.722;2022-07-03T10:00:17;2.50;;;0.70;;
3995;SDS011;2012;49.794;9.722;2022-07-03T10:03:00;3.10;;;0.63;;
3995;SDS011;2012;49.794;9.722;2022-07-03T10:08:10;1.37;;;0.90;;
3995;SDS011;2012;49.794;9.722;2022-07-03T10:10:40;0.90;;;0.80;;
3995;SDS011;2012;49.794;9.722;2022-07-03T10:13:09;1.77;;;0.87;;
3995;SDS011;2012;49.794;9.722;2022-07-03T10:15:36;1.43;;;0.70;;
3995;SDS011;2012;49.794;9.722;2022-07-03T10:18:06;2.50;;;0.77;;
3995;SDS011;2012;49.794;9.722;2022-07-03T10:20:45;0.87;;;0.83;;
3995;SDS011;2012;49.794;9.722;2022-07-03T10:23:16;2.30;;;0.70;;
3995;SDS011;2012;49.794;9.722;2022-07-03T10:25:47;0.80;;;0.77;;
3995;SDS011;2012;49.794;9.722;2022-07-03T10:28:15;1.00;;;0.80;;
3995;SDS011;2012;49.794;9.722;2022-07-03T10:30:44;1.57;;;0.70;;
3995;SDS011;2012;49.794;9.722;2022-07-03T10:33:12;0.77;;;0.60;;
3995;SDS011;2012;49.794;9.722;2022-07-03T10:35:48;1.00;;;0.70;;
3995;SDS011;2012;49.794;9.722;2022-07-03T10:41:04;5.27;;;0.80;;
3995;SDS011;2012;49.794;9.722;2022-07-03T10:44:12;1.80;;;1.00;;
3995;SDS011;2012;49.794;9.722;2022-07-03T10:46:59;1.13;;;0.70;;
3995;SDS011;2012;49.794;9.722;2022-07-03T10:49:33;1.43;;;0.50;;
3995;SDS011;2012;49.794;9.722;2022-07-03T10:52:00;1.60;;;0.70;;
3995;SDS011;2012;49.794;9.722;2022-07-03T11:02:28;0.93;;;0.83;;
3995;SDS011;2012;49.794;9.722;2022-07-03T11:10:29;1.40;;;0.80;;
3995;SDS011;2012;49.794;9.722;2022-07-03T11:13:10;1.83;;;0.97;;
3995;SDS011;2012;49.794;9.722;2022-07-03T11:18:32;2.10;;;0.70;;
3995;SDS011;2012;49.794;9.722;2022-07-03T11:23:52;0.70;;;0.60;;
3995;SDS011;2012;49.794;9.722;2022-07-03T11:26:40;1.03;;;0.60;;
3995;SDS011;2012;49.794;9.722;2022-07-03T11:29:07;1.43;;;0.60;;
3995;SDS011;2012;49.794;9.722;2022-07-03T11:31:50;0.80;;;0.50;;
3995;SDS011;2012;49.794;9.722;2022-07-03T11:34:20;1.93;;;0.70;;
3995;SDS011;2012;49.794;9.722;2022-07-03T11:36:47;0.73;;;0.50;;
3995;SDS011;2012;49.794;9.722;2022-07-03T11:39:14;0.70;;;0.50;;
3995;SDS011;2012;49.794;9.722;2022-07-03T11:41:45;0.60;;;0.60;;
3995;SDS011;2012;49.794;9.722;2022-07-03T11:44:16;0.70;;;0.60;;
3995;SDS011;2012;49.794;9.722;2022-07-03T11:46:49;4.53;;;0.80;;
3995;SDS011;2012;49.794;9.722;2022-07-03T11:49:18;3.03;;;0.70;;
3995;SDS011;2012;49.794;9.722;2022-07-03T11:51:54;1.33;;;0.60;;
3995;SDS011;2012;49.794;9.722;2022-07-03T11:54:21;3.10;;;0.67;;
3995;SDS011;2012;49.794;9.722;2022-07-03T11:56:48;0.90;;;0.60;;
3995;SDS011;2012;49.794;9.722;2022-07-03T11:59:15;2.97;;;0.60;;
3995;SDS011;2012;49.794;9.722;2022-07-03T12:01:48;2.70;;;0.77;;
3995;SDS011;2012;49.794;9.722;2022-07-03T12:04:19;0.70;;;0.60;;
3995;SDS011;2012;49.794;9.722;2022-07-03T12:06:50;0.70;;;0.50;;
3995;SDS011;2012;49.794;9.722;2022-07-03T12:09:23;0.90;;;0.80;;
3995;SDS011;2012;49.794;9.722;2022-07-03T12:17:16;3.77;;;0.80;;
3995;SDS011;2012;49.794;9.722;2022-07-03T12:19:48;0.80;;;0.60;;
3995;SDS011;2012;49.794;9.722;2022-07-03T12:22:36;0.83;;;0.73;;
3995;SDS011;2012;49.794;9.722;2022-07-03T12:25:04;0.80;;;0.80;;
3995;SDS011;2012;49.794;9.722;2022-07-03T12:27:43;0.70;;;0.60;;
3995;SDS011;2012;49.794;9.722;2022-07-03T12:30:11;0.93;;;0.70;;
3995;SDS011;2012;49.794;9.722;2022-07-03T12:32:50;1.60;;;0.63;;
3995;SDS011;2012;49.794;9.722;2022-07-03T12:35:21;3.57;;;0.60;;
3995;SDS011;2012;49.794;9.722;2022-07-03T12:37:48;2.27;;;0.70;;
3995;SDS011;2012;49.794;9.722;2022-07-03T12:40:15;0.60;;;0.50;;
3995;SDS011;2012;49.794;9.722;2022-07-03T12:45:20;1.70;;;0.60;;
3995;SDS011;2012;49.794;9.722;2022-07-03T12:48:04;1.13;;;0.80;;
3995;SDS011;2012;49.794;9.722;2022-07-03T12:50:48;3.00;;;0.70;;
3995;SDS011;2012;49.794;9.722;2022-07-03T12:53:27;2.83;;;0.53;;
3995;SDS011;2012;49.794;9.722;2022-07-03T12:55:59;5.40;;;0.70;;
3995;SDS011;2012;49.794;9.722;2022-07-03T12:58:28;0.80;;;0.60;;
3995;SDS011;2012;49.794;9.722;2022-07-03T13:04:10;0.70;;;0.60;;
3995;SDS011;2012;49.794;9.722;2022-07-03T13:06:41;0.60;;;0.60;;
3995;SDS011;2012;49.794;9.722;2022-07-03T13:09:08;1.37;;;0.70;;
3995;SDS011;2012;49.794;9.722;2022-07-03T13:11:36;4.80;;;0.60;;
3995;SDS011;2012;49.794;9.722;2022-07-03T13:14:15;0.70;;;0.60;;
3995;SDS011;2012;49.794;9.722;2022-07-03T13:19:13;1.50;;;0.60;;
3995;SDS011;2012;49.794;9.722;2022-07-03T13:21:41;3.43;;;0.87;;
3995;SDS011;2012;49.794;9.722;2022-07-03T13:24:09;6.10;;;0.80;;
3995;SDS011;2012;49.794;9.722;2022-07-03T13:26:39;0.70;;;0.53;;
3995;SDS011;2012;49.794;9.722;2022-07-03T13:29:06;3.03;;;0.60;;
3995;SDS011;2012;49.794;9.722;2022-07-03T13:31:33;2.20;;;0.90;;
3995;SDS011;2012;49.794;9.722;2022-07-03T13:34:00;1.13;;;0.63;;
3995;SDS011;2012;49.794;9.722;2022-07-03T13:36:27;2.13;;;0.67;;
3995;SDS011;2012;49.794;9.722;2022-07-03T13:38:56;1.00;;;0.70;;
3995;SDS011;2012;49.794;9.722;2022-07-03T13:41:23;2.70;;;0.60;;
3995;SDS011;2012;49.794;9.722;2022-07-03T13:43:50;1.73;;;0.60;;
3995;SDS011;2012;49.794;9.722;2022-07-03T13:46:19;0.60;;;0.50;;
3995;SDS011;2012;49.794;9.722;2022-07-03T13:48:50;1.47;;;0.63;;
3995;SDS011;2012;49.794;9.722;2022-07-03T13:51:18;0.80;;;0.60;;
3995;SDS011;2012;49.794;9.722;2022-07-03T13:53:46;6.53;;;0.67;;
3995;SDS011;2012;49.794;9.722;2022-07-03T13:56:13;0.90;;;0.60;;
3995;SDS011;2012;49.794;9.722;2022-07-03T13:58:41;2.60;;;0.77;;
3995;SDS011;2012;49.794;9.722;2022-07-03T14:01:15;1.07;;;0.70;;
3995;SDS011;2012;49.794;9.722;2022-07-03T14:03:42;2.63;;;0.70;;
3995;SDS011;2012;49.794;9.722;2022-07-03T14:06:09;0.70;;;0.60;;
3995;SDS011;2012;49.794;9.722;2022-07-03T14:08:36;0.60;;;0.50;;
3995;SDS011;2012;49.794;9.722;2022-07-03T14:11:02;1.27;;;0.63;;
3995;SDS011;2012;49.794;9.722;2022-07-03T14:13:29;2.80;;;0.80;;
3995;SDS011;2012;49.794;9.722;2022-07-03T14:15:56;4.77;;;0.97;;
3995;SDS011;2012;49.794;9.722;2022-07-03T14:18:23;2.00;;;0.70;;
3995;SDS011;2012;49.794;9.722;2022-07-03T14:20:49;2.20;;;0.60;;
3995;SDS011;2012;49.794;9.722;2022-07-03T14:23:16;3.87;;;0.57;;
3995;SDS011;2012;49.794;9.722;2022-07-03T14:25:43;1.43;;;0.70;;
3995;SDS011;2012;49.794;9.722;2022-07-03T14:28:10;1.03;;;0.67;;
3995;SDS011;2012;49.794;9.722;2022-07-03T14:30:55;1.83;;;0.70;;
3995;SDS011;2012;49.794;9.722;2022-07-03T14:33:40;0.90;;;0.77;;
3995;SDS011;2012;49.794;9.722;2022-07-03T14:36:07;1.20;;;0.70;;
3995;SDS011;2012;49.794;9.722;2022-07-03T14:38:54;0.70;;;0.70;;
3995;SDS011;2012;49.794;9.722;2022-07-03T14:41:20;1.07;;;0.60;;
3995;SDS011;2012;49.794;9.722;2022-07-03T14:43:47;3.60;;;0.60;;
3995;SDS011;2012;49.794;9.722;2022-07-03T14:46:14;0.80;;;0.60;;
3995;SDS011;2012;49.794;9.722;2022-07-03T14:48:41;0.90;;;0.80;;
3995;SDS011;2012;49.794;9.722;2022-07-03T14:51:07;9.53;;;0.70;;
3995;SDS011;2012;49.794;9.722;2022-07-03T14:53:34;3.63;;;0.70;;
3995;SDS011;2012;49.794;9.722;2022-07-03T14:56:01;2.83;;;0.70;;
3995;SDS011;2012;49.794;9.722;2022-07-03T14:58:28;0.80;;;0.60;;
3995;SDS011;2012;49.794;9.722;2022-07-03T15:00:57;1.50;;;0.70;;
3995;SDS011;2012;49.794;9.722;2022-07-03T15:03:31;0.80;;;0.70;;
3995;SDS011;2012;49.794;9.722;2022-07-03T15:06:00;2.97;;;0.80;;
3995;SDS011;2012;49.794;9.722;2022-07-03T15:13:34;3.23;;;0.73;;
3995;SDS011;2012;49.794;9.722;2022-07-03T15:16:01;1.60;;;0.77;;
3995;SDS011;2012;49.794;9.722;2022-07-03T15:18:29;3.87;;;0.73;;
3995;SDS011;2012;49.794;9.722;2022-07-03T15:20:55;1.80;;;0.60;;
3995;SDS011;2012;49.794;9.722;2022-07-03T15:23:23;1.77;;;0.87;;
3995;SDS011;2012;49.794;9.722;2022-07-03T15:25:52;0.80;;;0.60;;
3995;SDS011;2012;49.794;9.722;2022-07-03T15:28:20;6.60;;;0.60;;
3995;SDS011;2012;49.794;9.722;2022-07-03T15:30:49;2.10;;;0.60;;
3995;SDS011;2012;49.794;9.722;2022-07-03T15:33:17;1.23;;;0.60;;
3995;SDS011;2012;49.794;9.722;2022-07-03T15:35:45;3.63;;;0.60;;
3995;SDS011;2012;49.794;9.722;2022-07-03T15:38:17;0.70;;;0.60;;
3995;SDS011;2012;49.794;9.722;2022-07-03T15:40:58;1.10;;;0.50;;
3995;SDS011;2012;49.794;9.722;2022-07-03T15:52:00;1.67;;;0.70;;
3995;SDS011;2012;49.794;9.722;2022-07-03T15:57:05;1.30;;;0.70;;
3995;SDS011;2012;49.794;9.722;2022-07-03T15:59:41;4.70;;;0.70;;
3995;SDS011;2012;49.794;9.722;2022-07-03T16:02:14;0.80;;;0.70;;
3995;SDS011;2012;49.794;9.722;2022-07-03T16:05:03;0.80;;;0.60;;
3995;SDS011;2012;49.794;9.722;2022-07-03T16:07:35;1.07;;;0.60;;
3995;SDS011;2012;49.794;9.722;2022-07-03T16:10:03;1.27;;;0.80;;
3995;SDS011;2012;49.794;9.722;2022-07-03T16:12:34;1.80;;;0.70;;
3995;SDS011;2012;49.794;9.722;2022-07-03T16:15:04;1.47;;;0.90;;
3995;SDS011;2012;49.794;9.722;2022-07-03T16:17:32;1.50;;;0.70;;
3995;SDS011;2012;49.794;9.722;2022-07-03T16:20:00;1.20;;;0.70;;
3995;SDS011;2012;49.794;9.722;2022-07-03T16:22:29;0.90;;;0.70;;
3995;SDS011;2012;49.794;9.722;2022-07-03T16:25:00;1.40;;;0.80;;
3995;SDS011;2012;49.794;9.722;2022-07-03T16:27:29;1.83;;;0.60;;
3995;SDS011;2012;49.794;9.722;2022-07-03T16:29:57;2.20;;;0.60;;
3995;SDS011;2012;49.794;9.722;2022-07-03T16:32:28;0.90;;;0.50;;
3995;SDS011;2012;49.794;9.722;2022-07-03T16:35:03;11.10;;;0.80;;
3995;SDS011;2012;49.794;9.722;2022-07-03T16:37:35;1.93;;;0.80;;
3995;SDS011;2012;49.794;9.722;2022-07-03T16:40:11;2.30;;;0.70;;
3995;SDS011;2012;49.794;9.722;2022-07-03T16:42:39;1.77;;;0.70;;
3995;SDS011;2012;49.794;9.722;2022-07-03T16:45:12;1.37;;;0.70;;
3995;SDS011;2012;49.794;9.722;2022-07-03T16:47:40;4.23;;;0.60;;
3995;SDS011;2012;49.794;9.722;2022-07-03T16:50:15;1.13;;;0.70;;
3995;SDS011;2012;49.794;9.722;2022-07-03T16:52:50;1.30;;;0.80;;
3995;SDS011;2012;49.794;9.722;2022-07-03T16:55:20;0.80;;;0.70;;
3995;SDS011;2012;49.794;9.722;2022-07-03T16:57:49;3.43;;;0.80;;
3995;SDS011;2012;49.794;9.722;2022-07-03T17:00:19;0.80;;;0.80;;
3995;SDS011;2012;49.794;9.722;2022-07-03T17:02:51;2.37;;;0.77;;
3995;SDS011;2012;49.794;9.722;2022-07-03T17:05:20;1.80;;;0.70;;